sensor_id;sensor_type;location;lat;lon;timestamp;pressure;altitude;pressure_sealevel;temperature;humidity
80294;BME280;69594;43.516;1.498;2023-08-31T00:06:42;99905.75;;;17.26;nan
80294;BME280;69594;43.516;1.498;2023-08-31T00:11:35;52963.94;;;-143.46;nan
80294;BME280;69594;43.516;1.498;2023-08-31T00:14:01;76603.00;;;-143.46;nan
80294;BME280;69594;43.516;1.498;2023-08-31T00:35:54;99913.28;;;16.77;nan
80294;BME280;69594;43.516;1.498;2023-08-31T00:43:13;121514.44;;;-144.76;nan
80294;BME280;69594;43.516;1.498;2023-08-31T01:13:03;99911.00;;;16.21;nan
80294;BME280;69594;43.516;1.498;2023-08-31T01:45:07;99883.78;;;15.83;nan
80294;BME280;69594;43.516;1.498;2023-08-31T01:59:40;99902.28;;;15.74;nan
80294;BME280;69594;43.516;1.498;2023-08-31T02:21:28;99866.22;;;-143.46;nan
80294;BME280;69594;43.516;1.498;2023-08-31T02:23:53;99923.63;;;-143.46;nan
80294;BME280;69594;43.516;1.498;2023-08-31T02:36:00;99918.06;;;16.68;nan
80294;BME280;69594;43.516;1.498;2023-08-31T02:57:53;52963.94;;;-143.46;nan
80294;BME280;69594;43.516;1.498;2023-08-31T03:14:54;99902.84;;;16.82;nan
80294;BME280;69594;43.516;1.498;2023-08-31T03:17:19;76396.56;;;-143.46;nan
80294;BME280;69594;43.516;1.498;2023-08-31T03:19:44;76694.81;;;-144.76;nan
80294;BME280;69594;43.516;1.498;2023-08-31T03:24:35;99900.06;;;16.70;nan
80294;BME280;69594;43.516;1.498;2023-08-31T03:46:26;99910.56;;;16.32;nan
80294;BME280;69594;43.516;1.498;2023-08-31T04:13:09;99929.97;;;15.69;nan
80294;BME280;69594;43.516;1.498;2023-08-31T04:27:41;99939.19;;;16.18;nan
80294;BME280;69594;43.516;1.498;2023-08-31T04:30:07;76396.56;;;-143.46;nan
80294;BME280;69594;43.516;1.498;2023-08-31T05:23:30;100017.41;;;15.88;nan
80294;BME280;69594;43.516;1.498;2023-08-31T05:30:53;76874.25;;;-143.46;nan
80294;BME280;69594;43.516;1.498;2023-08-31T06:09:44;100037.50;;;-10.90;nan
80294;BME280;69594;43.516;1.498;2023-08-31T06:14:35;100047.34;;;17.74;nan
80294;BME280;69594;43.516;1.498;2023-08-31T06:19:26;52963.94;;;-143.46;nan
80294;BME280;69594;43.516;1.498;2023-08-31T06:21:51;76169.03;;;-143.46;nan
80294;BME280;69594;43.516;1.498;2023-08-31T06:24:16;100010.72;;;-143.46;nan
80294;BME280;69594;43.516;1.498;2023-08-31T06:26:42;100000.00;;;25.19;nan
80294;BME280;69594;43.516;1.498;2023-08-31T06:29:07;100025.31;;;26.13;nan
80294;BME280;69594;43.516;1.498;2023-08-31T06:31:35;100014.44;;;26.30;nan
80294;BME280;69594;43.516;1.498;2023-08-31T06:34:01;100004.97;;;26.75;nan
80294;BME280;69594;43.516;1.498;2023-08-31T06:36:27;100025.53;;;27.55;nan
80294;BME280;69594;43.516;1.498;2023-08-31T06:38:52;100020.88;;;27.79;nan
80294;BME280;69594;43.516;1.498;2023-08-31T06:41:18;100019.09;;;28.56;nan
80294;BME280;69594;43.516;1.498;2023-08-31T06:43:43;100024.34;;;29.08;nan
80294;BME280;69594;43.516;1.498;2023-08-31T06:46:11;100003.81;;;29.58;nan
80294;BME280;69594;43.516;1.498;2023-08-31T06:48:36;100056.53;;;30.33;nan
80294;BME280;69594;43.516;1.498;2023-08-31T06:51:02;100019.72;;;30.96;nan
80294;BME280;69594;43.516;1.498;2023-08-31T06:53:29;100028.34;;;31.38;nan
80294;BME280;69594;43.516;1.498;2023-08-31T06:55:55;100011.84;;;32.11;nan
80294;BME280;69594;43.516;1.498;2023-08-31T06:58:21;100022.97;;;32.69;nan
80294;BME280;69594;43.516;1.498;2023-08-31T07:00:46;100028.56;;;32.85;nan
80294;BME280;69594;43.516;1.498;2023-08-31T07:03:12;100013.59;;;33.22;nan
80294;BME280;69594;43.516;1.498;2023-08-31T07:05:42;100020.06;;;33.58;nan
80294;BME280;69594;43.516;1.498;2023-08-31T07:08:08;100020.81;;;34.36;nan
80294;BME280;69594;43.516;1.498;2023-08-31T07:10:34;100009.81;;;34.16;nan
80294;BME280;69594;43.516;1.498;2023-08-31T07:13:02;100026.31;;;34.40;nan
80294;BME280;69594;43.516;1.498;2023-08-31T07:15:27;100026.31;;;35.20;nan
80294;BME280;69594;43.516;1.498;2023-08-31T07:17:53;100031.25;;;35.65;nan
80294;BME280;69594;43.516;1.498;2023-08-31T07:20:18;100030.72;;;36.73;nan
80294;BME280;69594;43.516;1.498;2023-08-31T07:22:44;100032.19;;;37.02;nan
80294;BME280;69594;43.516;1.498;2023-08-31T07:25:10;100038.53;;;34.59;nan
80294;BME280;69594;43.516;1.498;2023-08-31T07:27:35;100034.09;;;34.05;nan
80294;BME280;69594;43.516;1.498;2023-08-31T07:30:01;100037.56;;;35.42;nan
80294;BME280;69594;43.516;1.498;2023-08-31T07:32:28;100019.75;;;35.96;nan
80294;BME280;69594;43.516;1.498;2023-08-31T07:34:53;100045.50;;;33.58;nan
80294;BME280;69594;43.516;1.498;2023-08-31T07:37:19;100035.41;;;34.66;nan
80294;BME280;69594;43.516;1.498;2023-08-31T07:39:44;100026.69;;;35.95;nan
80294;BME280;69594;43.516;1.498;2023-08-31T07:42:11;100064.78;;;37.24;nan
80294;BME280;69594;43.516;1.498;2023-08-31T07:44:36;100036.69;;;36.93;nan
80294;BME280;69594;43.516;1.498;2023-08-31T07:47:02;100038.28;;;37.42;nan
80294;BME280;69594;43.516;1.498;2023-08-31T07:49:27;100035.06;;;37.88;nan
80294;BME280;69594;43.516;1.498;2023-08-31T07:51:53;100037.16;;;38.02;nan
80294;BME280;69594;43.516;1.498;2023-08-31T07:54:20;100036.19;;;38.20;nan
80294;BME280;69594;43.516;1.498;2023-08-31T07:56:45;100029.63;;;38.43;nan
80294;BME280;69594;43.516;1.498;2023-08-31T07:59:10;100024.38;;;38.57;nan
80294;BME280;69594;43.516;1.498;2023-08-31T08:01:36;100014.16;;;38.80;nan
80294;BME280;69594;43.516;1.498;2023-08-31T08:04:01;100025.69;;;39.05;nan
80294;BME280;69594;43.516;1.498;2023-08-31T08:06:27;100041.81;;;39.29;nan
80294;BME280;69594;43.516;1.498;2023-08-31T08:08:52;100033.56;;;39.51;nan
80294;BME280;69594;43.516;1.498;2023-08-31T08:11:18;100031.84;;;39.80;nan
80294;BME280;69594;43.516;1.498;2023-08-31T08:13:43;100028.38;;;39.76;nan
80294;BME280;69594;43.516;1.498;2023-08-31T08:16:08;100018.72;;;39.67;nan
80294;BME280;69594;43.516;1.498;2023-08-31T08:18:34;100019.63;;;39.79;nan
80294;BME280;69594;43.516;1.498;2023-08-31T08:20:59;100027.47;;;40.10;nan
80294;BME280;69594;43.516;1.498;2023-08-31T08:23:25;100018.72;;;40.45;nan
80294;BME280;69594;43.516;1.498;2023-08-31T08:25:50;100036.22;;;40.90;nan
80294;BME280;69594;43.516;1.498;2023-08-31T08:28:16;100039.41;;;40.09;nan
80294;BME280;69594;43.516;1.498;2023-08-31T08:30:41;100030.25;;;40.30;nan
80294;BME280;69594;43.516;1.498;2023-08-31T08:33:16;100034.50;;;40.72;23.58
80294;BME280;69594;43.516;1.498;2023-08-31T08:35:41;100040.88;;;40.87;23.18
80294;BME280;69594;43.516;1.498;2023-08-31T08:38:07;100046.56;;;39.52;24.70
80294;BME280;69594;43.516;1.498;2023-08-31T08:40:33;100067.56;;;37.34;26.74
80294;BME280;69594;43.516;1.498;2023-08-31T08:43:01;100050.97;;;35.96;28.00
80294;BME280;69594;43.516;1.498;2023-08-31T08:45:30;100041.28;;;37.15;26.45
80294;BME280;69594;43.516;1.498;2023-08-31T08:48:03;100039.25;;;38.31;25.14
80294;BME280;69594;43.516;1.498;2023-08-31T08:50:31;100043.47;;;38.51;25.17
80294;BME280;69594;43.516;1.498;2023-08-31T08:52:59;100045.28;;;35.87;27.99
80294;BME280;69594;43.516;1.498;2023-08-31T08:55:25;100058.56;;;33.99;29.66
80294;BME280;69594;43.516;1.498;2023-08-31T08:57:50;100059.53;;;33.48;30.34
80294;BME280;69594;43.516;1.498;2023-08-31T09:00:16;100058.50;;;34.11;29.67
80294;BME280;69594;43.516;1.498;2023-08-31T09:02:41;100050.00;;;35.63;27.58
80294;BME280;69594;43.516;1.498;2023-08-31T09:05:07;100051.56;;;35.64;27.55
80294;BME280;69594;43.516;1.498;2023-08-31T09:07:36;100036.56;;;36.79;26.09
80294;BME280;69594;43.516;1.498;2023-08-31T09:10:02;100047.31;;;37.08;25.85
80294;BME280;69594;43.516;1.498;2023-08-31T09:12:29;100042.44;;;36.15;26.62
80294;BME280;69594;43.516;1.498;2023-08-31T09:15:01;100044.28;;;36.87;25.60
80294;BME280;69594;43.516;1.498;2023-08-31T09:17:40;100030.88;;;37.12;25.27
80294;BME280;69594;43.516;1.498;2023-08-31T09:20:07;100043.84;;;35.64;26.91
80294;BME280;69594;43.516;1.498;2023-08-31T09:22:34;100043.72;;;35.86;25.92
80294;BME280;69594;43.516;1.498;2023-08-31T09:24:59;100045.13;;;35.45;26.07
80294;BME280;69594;43.516;1.498;2023-08-31T09:27:25;100047.66;;;35.70;26.02
80294;BME280;69594;43.516;1.498;2023-08-31T09:29:54;100046.84;;;35.79;25.75
80294;BME280;69594;43.516;1.498;2023-08-31T09:32:21;100025.59;;;35.75;25.69
80294;BME280;69594;43.516;1.498;2023-08-31T09:34:47;100043.53;;;35.53;25.73
80294;BME280;69594;43.516;1.498;2023-08-31T09:37:12;100048.94;;;35.02;26.13
80294;BME280;69594;43.516;1.498;2023-08-31T09:39:40;100032.91;;;35.17;25.77
80294;BME280;69594;43.516;1.498;2023-08-31T09:42:06;100028.97;;;35.15;26.00
80294;BME280;69594;43.516;1.498;2023-08-31T09:44:32;100042.13;;;34.90;26.45
80294;BME280;69594;43.516;1.498;2023-08-31T09:46:58;100037.03;;;34.45;27.03
80294;BME280;69594;43.516;1.498;2023-08-31T09:49:25;100045.44;;;33.83;27.87
80294;BME280;69594;43.516;1.498;2023-08-31T09:51:51;100039.13;;;33.19;28.46
80294;BME280;69594;43.516;1.498;2023-08-31T09:54:19;100035.28;;;32.62;29.23
80294;BME280;69594;43.516;1.498;2023-08-31T09:56:46;100021.34;;;32.17;29.40
80294;BME280;69594;43.516;1.498;2023-08-31T09:59:13;100061.41;;;31.50;30.42
80294;BME280;69594;43.516;1.498;2023-08-31T10:01:39;100029.41;;;31.11;30.73
80294;BME280;69594;43.516;1.498;2023-08-31T10:04:06;100038.59;;;30.63;31.62
80294;BME280;69594;43.516;1.498;2023-08-31T10:06:34;100057.16;;;29.81;32.69
80294;BME280;69594;43.516;1.498;2023-08-31T10:09:01;100038.00;;;29.53;32.97
80294;BME280;69594;43.516;1.498;2023-08-31T10:11:30;100021.66;;;29.24;33.74
80294;BME280;69594;43.516;1.498;2023-08-31T10:13:57;100026.66;;;29.37;33.55
80294;BME280;69594;43.516;1.498;2023-08-31T10:16:25;100023.59;;;29.27;33.71
80294;BME280;69594;43.516;1.498;2023-08-31T10:18:51;100022.91;;;28.97;34.38
80294;BME280;69594;43.516;1.498;2023-08-31T10:21:17;100029.09;;;28.57;35.07
80294;BME280;69594;43.516;1.498;2023-08-31T10:23:50;100018.97;;;28.67;35.02
80294;BME280;69594;43.516;1.498;2023-08-31T10:26:29;100022.63;;;28.33;35.11
80294;BME280;69594;43.516;1.498;2023-08-31T10:28:56;100012.91;;;28.42;35.05
80294;BME280;69594;43.516;1.498;2023-08-31T10:31:22;75393.00;;;-143.46;35.05
80294;BME280;69594;43.516;1.498;2023-08-31T10:33:58;100010.41;;;28.47;34.78
80294;BME280;69594;43.516;1.498;2023-08-31T10:36:37;100007.50;;;28.27;34.89
80294;BME280;69594;43.516;1.498;2023-08-31T10:39:17;100004.72;;;27.93;35.23
80294;BME280;69594;43.516;1.498;2023-08-31T10:42:00;100004.16;;;27.71;35.48
80294;BME280;69594;43.516;1.498;2023-08-31T10:44:27;100006.13;;;27.75;35.37
80294;BME280;69594;43.516;1.498;2023-08-31T10:46:59;100000.19;;;27.69;35.66
80294;BME280;69594;43.516;1.498;2023-08-31T10:49:25;100008.59;;;27.69;35.83
80294;BME280;69594;43.516;1.498;2023-08-31T10:54:40;99976.66;;;27.97;35.74
80294;BME280;69594;43.516;1.498;2023-08-31T10:57:05;99962.97;;;28.02;36.12
80294;BME280;69594;43.516;1.498;2023-08-31T10:59:42;99989.94;;;28.20;35.43
80294;BME280;69594;43.516;1.498;2023-08-31T11:02:08;99981.25;;;28.11;35.90
80294;BME280;69594;43.516;1.498;2023-08-31T11:04:53;99972.38;;;28.16;35.54
80294;BME280;69594;43.516;1.498;2023-08-31T11:07:22;99963.16;;;27.88;35.95
80294;BME280;69594;43.516;1.498;2023-08-31T11:09:48;99982.25;;;27.63;36.40
80294;BME280;69594;43.516;1.498;2023-08-31T11:12:14;99986.50;;;27.37;36.67
80294;BME280;69594;43.516;1.498;2023-08-31T11:14:40;99977.44;;;27.26;37.16
80294;BME280;69594;43.516;1.498;2023-08-31T11:17:06;99977.47;;;27.22;36.98
80294;BME280;69594;43.516;1.498;2023-08-31T11:19:33;99987.91;;;27.18;37.20
80294;BME280;69594;43.516;1.498;2023-08-31T11:22:02;99971.88;;;27.22;36.75
80294;BME280;69594;43.516;1.498;2023-08-31T11:24:32;99966.44;;;27.04;37.17
80294;BME280;69594;43.516;1.498;2023-08-31T11:26:58;99970.47;;;26.96;37.19
80294;BME280;69594;43.516;1.498;2023-08-31T11:29:24;99960.06;;;26.97;37.30
80294;BME280;69594;43.516;1.498;2023-08-31T11:31:50;99963.31;;;26.92;37.19
80294;BME280;69594;43.516;1.498;2023-08-31T11:34:16;99963.72;;;-143.46;37.19
80294;BME280;69594;43.516;1.498;2023-08-31T11:36:43;99954.44;;;26.52;37.87
80294;BME280;69594;43.516;1.498;2023-08-31T11:39:09;99967.31;;;26.35;38.11
80294;BME280;69594;43.516;1.498;2023-08-31T11:41:36;99961.03;;;26.17;38.32
80294;BME280;69594;43.516;1.498;2023-08-31T11:44:06;99958.66;;;26.15;38.33
80294;BME280;69594;43.516;1.498;2023-08-31T11:46:32;99963.84;;;26.13;38.74
80294;BME280;69594;43.516;1.498;2023-08-31T11:49:01;99966.16;;;26.26;38.41
80294;BME280;69594;43.516;1.498;2023-08-31T11:51:30;99958.56;;;26.30;38.41
80294;BME280;69594;43.516;1.498;2023-08-31T11:53:56;99965.72;;;26.31;38.46
80294;BME280;69594;43.516;1.498;2023-08-31T11:56:23;99972.53;;;26.30;38.22
80294;BME280;69594;43.516;1.498;2023-08-31T11:58:59;99955.00;;;26.22;38.06
80294;BME280;69594;43.516;1.498;2023-08-31T12:01:24;99961.44;;;26.15;38.27
80294;BME280;69594;43.516;1.498;2023-08-31T12:03:50;99935.53;;;26.11;38.35
80294;BME280;69594;43.516;1.498;2023-08-31T12:06:16;99947.50;;;26.08;38.23
80294;BME280;69594;43.516;1.498;2023-08-31T12:08:43;99947.50;;;26.08;38.70
80294;BME280;69594;43.516;1.498;2023-08-31T12:11:08;99936.31;;;26.12;38.40
80294;BME280;69594;43.516;1.498;2023-08-31T12:13:34;99947.03;;;26.21;38.29
80294;BME280;69594;43.516;1.498;2023-08-31T12:16:00;99947.84;;;26.21;38.37
80294;BME280;69594;43.516;1.498;2023-08-31T12:18:29;99940.69;;;26.13;38.31
80294;BME280;69594;43.516;1.498;2023-08-31T12:20:55;99944.28;;;26.13;38.35
80294;BME280;69594;43.516;1.498;2023-08-31T12:23:22;99958.66;;;26.15;38.38
80294;BME280;69594;43.516;1.498;2023-08-31T12:25:52;99945.41;;;26.27;38.14
80294;BME280;69594;43.516;1.498;2023-08-31T12:28:18;99939.44;;;26.25;38.23
80294;BME280;69594;43.516;1.498;2023-08-31T12:30:51;99946.19;;;26.34;37.76
80294;BME280;69594;43.516;1.498;2023-08-31T12:33:18;99942.19;;;26.28;38.18
80294;BME280;69594;43.516;1.498;2023-08-31T12:35:44;99963.72;;;26.31;38.06
80294;BME280;69594;43.516;1.498;2023-08-31T12:38:09;99948.59;;;26.25;38.15
80294;BME280;69594;43.516;1.498;2023-08-31T12:40:35;99954.56;;;26.31;38.15
80294;BME280;69594;43.516;1.498;2023-08-31T12:43:01;99972.53;;;26.33;38.00
80294;BME280;69594;43.516;1.498;2023-08-31T12:45:27;99942.19;;;26.35;37.69
80294;BME280;69594;43.516;1.498;2023-08-31T12:47:52;99936.13;;;26.47;37.54
80294;BME280;69594;43.516;1.498;2023-08-31T12:50:18;99936.44;;;26.57;37.53
80294;BME280;69594;43.516;1.498;2023-08-31T12:52:45;99923.63;;;26.63;37.41
80294;BME280;69594;43.516;1.498;2023-08-31T12:55:12;99926.91;;;26.51;37.54
80294;BME280;69594;43.516;1.498;2023-08-31T12:57:37;99923.00;;;26.37;37.81
80294;BME280;69594;43.516;1.498;2023-08-31T13:00:03;75564.03;;;-143.46;37.81
80294;BME280;69594;43.516;1.498;2023-08-31T13:02:30;75572.38;;;-143.46;37.82
80294;BME280;69594;43.516;1.498;2023-08-31T13:04:56;99937.84;;;26.24;37.75
80294;BME280;69594;43.516;1.498;2023-08-31T13:07:21;99922.28;;;26.23;37.88
80294;BME280;69594;43.516;1.498;2023-08-31T13:09:46;99911.09;;;26.23;37.86
80294;BME280;69594;43.516;1.498;2023-08-31T13:12:12;99903.63;;;26.09;37.79
80294;BME280;69594;43.516;1.498;2023-08-31T13:14:37;99894.88;;;26.03;37.93
80294;BME280;69594;43.516;1.498;2023-08-31T13:17:04;99909.56;;;26.14;37.97
80294;BME280;69594;43.516;1.498;2023-08-31T13:19:30;75580.72;;;-143.46;37.97
80294;BME280;69594;43.516;1.498;2023-08-31T13:21:56;99900.72;;;26.23;37.57
80294;BME280;69594;43.516;1.498;2023-08-31T13:24:21;99928.63;;;26.27;37.60
80294;BME280;69594;43.516;1.498;2023-08-31T13:26:47;99898.63;;;26.38;37.41
80294;BME280;69594;43.516;1.498;2023-08-31T13:29:14;99888.97;;;26.53;37.46
80294;BME280;69594;43.516;1.498;2023-08-31T13:31:40;99924.84;;;26.58;37.14
80294;BME280;69594;43.516;1.498;2023-08-31T13:34:05;99908.91;;;26.55;36.95
80294;BME280;69594;43.516;1.498;2023-08-31T13:36:33;99895.28;;;26.61;37.18
80294;BME280;69594;43.516;1.498;2023-08-31T13:38:58;99933.19;;;26.65;36.97
80294;BME280;69594;43.516;1.498;2023-08-31T13:41:24;99909.91;;;26.75;37.03
80294;BME280;69594;43.516;1.498;2023-08-31T13:43:49;99880.78;;;26.76;37.07
80294;BME280;69594;43.516;1.498;2023-08-31T13:46:14;75486.84;;;-143.46;37.07
80294;BME280;69594;43.516;1.498;2023-08-31T13:48:40;99897.78;;;26.93;36.80
80294;BME280;69594;43.516;1.498;2023-08-31T13:51:05;99878.63;;;26.91;37.11
80294;BME280;69594;43.516;1.498;2023-08-31T13:53:31;99910.56;;;26.94;36.83
80294;BME280;69594;43.516;1.498;2023-08-31T13:55:56;99901.00;;;26.91;36.98
80294;BME280;69594;43.516;1.498;2023-08-31T13:58:22;99877.78;;;26.94;36.99
80294;BME280;69594;43.516;1.498;2023-08-31T14:00:47;99887.41;;;26.93;36.88
80294;BME280;69594;43.516;1.498;2023-08-31T14:03:14;99899.34;;;26.97;36.98
80294;BME280;69594;43.516;1.498;2023-08-31T14:05:39;99879.38;;;26.99;37.07
80294;BME280;69594;43.516;1.498;2023-08-31T14:08:05;99878.56;;;26.98;37.04
80294;BME280;69594;43.516;1.498;2023-08-31T14:10:31;99890.56;;;26.99;36.86
80294;BME280;69594;43.516;1.498;2023-08-31T14:12:58;99867.78;;;26.97;36.97
80294;BME280;69594;43.516;1.498;2023-08-31T14:15:23;99851.44;;;26.92;37.13
80294;BME280;69594;43.516;1.498;2023-08-31T14:17:52;99906.63;;;26.88;36.83
80294;BME280;69594;43.516;1.498;2023-08-31T14:20:18;99874.28;;;26.87;37.04
80294;BME280;69594;43.516;1.498;2023-08-31T14:22:44;99870.78;;;26.75;37.17
80294;BME280;69594;43.516;1.498;2023-08-31T14:25:14;99863.97;;;26.80;37.10
80294;BME280;69594;43.516;1.498;2023-08-31T14:27:40;99854.78;;;26.79;37.13
80294;BME280;69594;43.516;1.498;2023-08-31T14:30:06;99877.69;;;26.64;37.02
80294;BME280;69594;43.516;1.498;2023-08-31T14:32:32;99840.84;;;26.72;37.22
80294;BME280;69594;43.516;1.498;2023-08-31T14:34:58;99852.84;;;26.69;37.12
80294;BME280;69594;43.516;1.498;2023-08-31T14:37:23;99851.97;;;26.79;37.25
80294;BME280;69594;43.516;1.498;2023-08-31T14:39:49;99869.97;;;26.78;36.94
80294;BME280;69594;43.516;1.498;2023-08-31T14:42:14;99860.78;;;26.78;37.05
80294;BME280;69594;43.516;1.498;2023-08-31T14:44:46;99849.09;;;26.87;36.96
80294;BME280;69594;43.516;1.498;2023-08-31T14:47:11;99831.50;;;26.90;36.96
80294;BME280;69594;43.516;1.498;2023-08-31T14:49:38;99848.22;;;26.93;36.98
80294;BME280;69594;43.516;1.498;2023-08-31T14:52:04;99862.63;;;26.92;37.00
80294;BME280;69594;43.516;1.498;2023-08-31T14:54:32;99857.75;;;27.03;36.83
80294;BME280;69594;43.516;1.498;2023-08-31T14:56:57;99839.72;;;27.07;36.71
80294;BME280;69594;43.516;1.498;2023-08-31T14:59:23;99854.53;;;27.04;36.82
80294;BME280;69594;43.516;1.498;2023-08-31T15:01:49;99851.31;;;27.06;36.83
80294;BME280;69594;43.516;1.498;2023-08-31T15:04:15;99843.69;;;27.10;36.98
80294;BME280;69594;43.516;1.498;2023-08-31T15:06:40;99843.63;;;27.17;36.99
80294;BME280;69594;43.516;1.498;2023-08-31T15:09:06;99849.63;;;27.16;37.07
80294;BME280;69594;43.516;1.498;2023-08-31T15:11:31;99849.31;;;27.06;37.11
80294;BME280;69594;43.516;1.498;2023-08-31T15:13:57;99879.28;;;27.06;36.93
80294;BME280;69594;43.516;1.498;2023-08-31T15:16:22;99853.69;;;27.07;37.18
80294;BME280;69594;43.516;1.498;2023-08-31T15:18:48;99837.72;;;27.08;37.06
80294;BME280;69594;43.516;1.498;2023-08-31T15:21:14;99866.09;;;27.06;36.93
80294;BME280;69594;43.516;1.498;2023-08-31T15:23:42;99862.03;;;27.11;37.09
80294;BME280;69594;43.516;1.498;2023-08-31T15:26:08;99862.03;;;28.12;37.06
80294;BME280;69594;43.516;1.498;2023-08-31T15:28:33;99845.56;;;27.20;36.94
80294;BME280;69594;43.516;1.498;2023-08-31T15:30:59;99835.28;;;27.14;36.80
80294;BME280;69594;43.516;1.498;2023-08-31T15:33:24;99844.38;;;27.21;37.00
80294;BME280;69594;43.516;1.498;2023-08-31T15:35:49;99825.66;;;27.15;37.10
80294;BME280;69594;43.516;1.498;2023-08-31T15:38:15;99853.59;;;27.18;37.00
80294;BME280;69594;43.516;1.498;2023-08-31T15:40:46;99840.72;;;27.24;36.88
80294;BME280;69594;43.516;1.498;2023-08-31T15:43:11;99825.09;;;27.27;37.03
80294;BME280;69594;43.516;1.498;2023-08-31T15:45:37;99826.31;;;27.26;36.94
80294;BME280;69594;43.516;1.498;2023-08-31T15:48:02;99864.00;;;27.18;37.15
80294;BME280;69594;43.516;1.498;2023-08-31T15:50:28;99828.78;;;27.20;37.13
80294;BME280;69594;43.516;1.498;2023-08-31T15:52:55;99836.06;;;27.14;37.05
80294;BME280;69594;43.516;1.498;2023-08-31T15:55:22;99850.44;;;27.13;37.35
80294;BME280;69594;43.516;1.498;2023-08-31T15:57:47;99826.88;;;27.14;37.34
80294;BME280;69594;43.516;1.498;2023-08-31T16:00:13;99830.03;;;27.16;37.33
80294;BME280;69594;43.516;1.498;2023-08-31T16:02:38;99834.44;;;27.13;37.63
80294;BME280;69594;43.516;1.498;2023-08-31T16:05:07;99842.03;;;27.16;37.54
80294;BME280;69594;43.516;1.498;2023-08-31T16:07:34;99850.44;;;27.16;37.41
80294;BME280;69594;43.516;1.498;2023-08-31T16:10:00;99831.25;;;27.15;37.30
80294;BME280;69594;43.516;1.498;2023-08-31T16:12:25;75405.50;;;-143.46;37.31
80294;BME280;69594;43.516;1.498;2023-08-31T16:14:50;99823.72;;;27.08;37.55
80294;BME280;69594;43.516;1.498;2023-08-31T16:17:18;99822.13;;;27.07;37.66
80294;BME280;69594;43.516;1.498;2023-08-31T16:19:44;99821.75;;;27.05;37.68
80294;BME280;69594;43.516;1.498;2023-08-31T16:22:09;99859.34;;;27.04;37.49
80294;BME280;69594;43.516;1.498;2023-08-31T16:24:35;99826.59;;;27.01;37.47
80294;BME280;69594;43.516;1.498;2023-08-31T16:27:00;99814.63;;;26.97;37.62
80294;BME280;69594;43.516;1.498;2023-08-31T16:29:25;99815.78;;;27.03;37.74
80294;BME280;69594;43.516;1.498;2023-08-31T16:31:51;99811.81;;;27.00;37.85
80294;BME280;69594;43.516;1.498;2023-08-31T16:34:17;99817.78;;;27.02;37.89
80294;BME280;69594;43.516;1.498;2023-08-31T16:36:42;99821.44;;;26.99;37.83
80294;BME280;69594;43.516;1.498;2023-08-31T16:39:07;99798.66;;;26.97;37.78
80294;BME280;69594;43.516;1.498;2023-08-31T16:41:33;99831.03;;;26.95;38.04
80294;BME280;69594;43.516;1.498;2023-08-31T16:43:59;99815.88;;;26.92;38.04
80294;BME280;69594;43.516;1.498;2023-08-31T16:46:24;99814.78;;;26.83;38.25
80294;BME280;69594;43.516;1.498;2023-08-31T16:48:50;99796.81;;;26.84;38.22
80294;BME280;69594;43.516;1.498;2023-08-31T16:51:15;99817.66;;;26.75;38.32
80294;BME280;69594;43.516;1.498;2023-08-31T16:53:42;99786.13;;;26.71;38.46
80294;BME280;69594;43.516;1.498;2023-08-31T16:56:07;99801.75;;;26.69;38.50
80294;BME280;69594;43.516;1.498;2023-08-31T16:58:33;99819.38;;;26.62;38.71
80294;BME280;69594;43.516;1.498;2023-08-31T17:00:58;99834.66;;;26.54;38.62
80294;BME280;69594;43.516;1.498;2023-08-31T17:03:24;99818.28;;;26.53;38.80
80294;BME280;69594;43.516;1.498;2023-08-31T17:05:53;99802.38;;;26.46;38.64
80294;BME280;69594;43.516;1.498;2023-08-31T17:08:20;99819.19;;;26.39;38.97
80294;BME280;69594;43.516;1.498;2023-08-31T17:10:45;99820.03;;;26.36;38.92
80294;BME280;69594;43.516;1.498;2023-08-31T17:13:11;99801.25;;;26.40;39.18
80294;BME280;69594;43.516;1.498;2023-08-31T17:15:36;99812.84;;;26.35;39.12
80294;BME280;69594;43.516;1.498;2023-08-31T17:18:01;99837.19;;;26.31;39.58
80294;BME280;69594;43.516;1.498;2023-08-31T17:20:27;99804.94;;;26.23;39.40
80294;BME280;69594;43.516;1.498;2023-08-31T17:22:55;99793.00;;;26.18;39.59
80294;BME280;69594;43.516;1.498;2023-08-31T17:25:21;99798.28;;;26.09;39.58
80294;BME280;69594;43.516;1.498;2023-08-31T17:27:47;99804.72;;;25.99;39.67
80294;BME280;69594;43.516;1.498;2023-08-31T17:30:12;99818.69;;;25.96;39.94
80294;BME280;69594;43.516;1.498;2023-08-31T17:32:38;75534.84;;;-143.46;39.94
80294;BME280;69594;43.516;1.498;2023-08-31T17:35:04;99813.25;;;25.78;40.29
80294;BME280;69594;43.516;1.498;2023-08-31T17:37:31;99821.28;;;25.72;40.51
80294;BME280;69594;43.516;1.498;2023-08-31T17:39:57;99792.19;;;25.59;40.90
80294;BME280;69594;43.516;1.498;2023-08-31T17:42:24;75328.47;;;-143.46;40.90
80294;BME280;69594;43.516;1.498;2023-08-31T17:44:49;99805.88;;;25.39;41.68
80294;BME280;69594;43.516;1.498;2023-08-31T17:47:14;99804.72;;;25.30;42.20
80294;BME280;69594;43.516;1.498;2023-08-31T17:49:43;99818.69;;;25.22;42.69
80294;BME280;69594;43.516;1.498;2023-08-31T17:52:10;99821.50;;;25.12;43.13
80294;BME280;69594;43.516;1.498;2023-08-31T17:54:35;99817.59;;;24.99;43.33
80294;BME280;69594;43.516;1.498;2023-08-31T17:57:01;99817.94;;;24.90;43.65
80294;BME280;69594;43.516;1.498;2023-08-31T17:59:27;99815.22;;;24.72;44.08
80294;BME280;69594;43.516;1.498;2023-08-31T18:01:53;99832.75;;;24.66;44.12
80294;BME280;69594;43.516;1.498;2023-08-31T18:04:20;99814.84;;;24.52;44.73
80294;BME280;69594;43.516;1.498;2023-08-31T18:06:49;99823.59;;;24.40;45.63
80294;BME280;69594;43.516;1.498;2023-08-31T18:09:16;99833.16;;;24.28;46.36
80294;BME280;69594;43.516;1.498;2023-08-31T18:11:42;99848.25;;;24.17;47.15
80294;BME280;69594;43.516;1.498;2023-08-31T18:14:07;99816.00;;;24.05;47.60
80294;BME280;69594;43.516;1.498;2023-08-31T18:16:34;99862.94;;;23.89;48.40
80294;BME280;69594;43.516;1.498;2023-08-31T18:18:59;99862.94;;;-143.46;49.23